• +62 31 8667540

  • +62 31 8668989 (24 jam)

  • Stasiun Meteorologi Juanda

  • Bandar Udara Juanda - Sidoarjo

  • 08:00 - 16:00

  • Senin sampai Jumat

METAR 3 JAM TERAKHIR

Data at: 1602 UTC 21 Oct 2017

WARR 211500Z 24006KT 9999 FEW020 28/20 Q1012 NOSIG
WARR 211400Z 29006KT 9999 FEW020 28/20 Q1011 NOSIG

Peringatan Dini Cuaca Hari Ini

Waspadai Hujan Intensitas Sedang-Lebat disertai Petir dan Angin Kencang sesaat pada siang atau sore hari di wilayah Bangkalan, Bondowoso, Jember, Lamongan, Lumajang, Probolinggo, Bojonegoro, Pacitan